sensor_id;sensor_type;location;lat;lon;timestamp;P1;durP1;ratioP1;P2;durP2;ratioP2
23888;SDS011;12125;40.102;18.326;2022-11-20T00:00:23;52.60;;;10.77;;
23888;SDS011;12125;40.102;18.326;2022-11-20T00:02:52;48.58;;;12.82;;
23888;SDS011;12125;40.102;18.326;2022-11-20T00:05:20;51.47;;;13.02;;
23888;SDS011;12125;40.102;18.326;2022-11-20T00:07:47;49.40;;;12.88;;
23888;SDS011;12125;40.102;18.326;2022-11-20T00:10:15;67.63;;;13.85;;
23888;SDS011;12125;40.102;18.326;2022-11-20T00:12:42;57.72;;;14.02;;
23888;SDS011;12125;40.102;18.326;2022-11-20T00:15:09;56.63;;;12.25;;
23888;SDS011;12125;40.102;18.326;2022-11-20T00:17:38;62.20;;;13.70;;
23888;SDS011;12125;40.102;18.326;2022-11-20T00:20:07;48.22;;;13.25;;
23888;SDS011;12125;40.102;18.326;2022-11-20T00:22:34;53.70;;;12.10;;
23888;SDS011;12125;40.102;18.326;2022-11-20T00:25:01;52.33;;;13.23;;
23888;SDS011;12125;40.102;18.326;2022-11-20T00:27:29;46.58;;;12.55;;
23888;SDS011;12125;40.102;18.326;2022-11-20T00:29:56;62.95;;;12.23;;
23888;SDS011;12125;40.102;18.326;2022-11-20T00:32:23;57.20;;;12.50;;
23888;SDS011;12125;40.102;18.326;2022-11-20T00:34:50;43.25;;;11.68;;
23888;SDS011;12125;40.102;18.326;2022-11-20T00:37:17;64.72;;;13.35;;
23888;SDS011;12125;40.102;18.326;2022-11-20T00:39:45;64.32;;;12.55;;
23888;SDS011;12125;40.102;18.326;2022-11-20T00:42:13;62.25;;;13.98;;
23888;SDS011;12125;40.102;18.326;2022-11-20T00:44:40;50.05;;;12.40;;
23888;SDS011;12125;40.102;18.326;2022-11-20T00:47:09;54.97;;;12.13;;
23888;SDS011;12125;40.102;18.326;2022-11-20T00:49:37;64.05;;;12.23;;
23888;SDS011;12125;40.102;18.326;2022-11-20T00:52:03;52.35;;;12.18;;
23888;SDS011;12125;40.102;18.326;2022-11-20T00:54:30;54.50;;;12.60;;
23888;SDS011;12125;40.102;18.326;2022-11-20T00:56:57;51.90;;;12.73;;
23888;SDS011;12125;40.102;18.326;2022-11-20T00:59:25;65.00;;;12.95;;
23888;SDS011;12125;40.102;18.326;2022-11-20T01:01:51;56.13;;;12.57;;
23888;SDS011;12125;40.102;18.326;2022-11-20T01:04:19;45.95;;;11.55;;
23888;SDS011;12125;40.102;18.326;2022-11-20T01:06:46;49.92;;;12.65;;
23888;SDS011;12125;40.102;18.326;2022-11-20T01:09:14;53.25;;;12.45;;
23888;SDS011;12125;40.102;18.326;2022-11-20T01:11:42;47.28;;;11.38;;
23888;SDS011;12125;40.102;18.326;2022-11-20T01:14:11;54.47;;;11.27;;
23888;SDS011;12125;40.102;18.326;2022-11-20T01:16:42;51.47;;;12.25;;
23888;SDS011;12125;40.102;18.326;2022-11-20T01:19:13;65.53;;;13.18;;
23888;SDS011;12125;40.102;18.326;2022-11-20T01:21:41;68.72;;;12.68;;
23888;SDS011;12125;40.102;18.326;2022-11-20T01:36:16;51.83;;;12.05;;
23888;SDS011;12125;40.102;18.326;2022-11-20T01:38:43;60.58;;;12.23;;
23888;SDS011;12125;40.102;18.326;2022-11-20T01:41:10;55.58;;;11.82;;
23888;SDS011;12125;40.102;18.326;2022-11-20T01:43:57;56.33;;;12.50;;
23888;SDS011;12125;40.102;18.326;2022-11-20T01:46:23;58.00;;;11.75;;
23888;SDS011;12125;40.102;18.326;2022-11-20T01:49:04;52.20;;;12.73;;
23888;SDS011;12125;40.102;18.326;2022-11-20T01:51:35;51.15;;;11.93;;
23888;SDS011;12125;40.102;18.326;2022-11-20T01:54:05;69.53;;;13.88;;
23888;SDS011;12125;40.102;18.326;2022-11-20T01:56:35;66.93;;;14.98;;
23888;SDS011;12125;40.102;18.326;2022-11-20T01:59:03;63.50;;;12.63;;
23888;SDS011;12125;40.102;18.326;2022-11-20T02:01:31;70.13;;;13.90;;
23888;SDS011;12125;40.102;18.326;2022-11-20T02:03:58;63.88;;;13.15;;
23888;SDS011;12125;40.102;18.326;2022-11-20T02:06:26;66.30;;;13.43;;
23888;SDS011;12125;40.102;18.326;2022-11-20T02:08:55;67.07;;;13.80;;
23888;SDS011;12125;40.102;18.326;2022-11-20T02:11:21;60.10;;;13.75;;
23888;SDS011;12125;40.102;18.326;2022-11-20T02:13:48;55.13;;;13.98;;
23888;SDS011;12125;40.102;18.326;2022-11-20T02:16:16;65.40;;;14.68;;
23888;SDS011;12125;40.102;18.326;2022-11-20T02:18:44;62.83;;;12.82;;
23888;SDS011;12125;40.102;18.326;2022-11-20T02:21:33;46.42;;;12.15;;
23888;SDS011;12125;40.102;18.326;2022-11-20T02:24:06;64.22;;;14.95;;
23888;SDS011;12125;40.102;18.326;2022-11-20T02:26:43;53.58;;;13.45;;
23888;SDS011;12125;40.102;18.326;2022-11-20T02:29:10;60.28;;;13.18;;
23888;SDS011;12125;40.102;18.326;2022-11-20T02:31:37;58.80;;;14.23;;
23888;SDS011;12125;40.102;18.326;2022-11-20T02:34:04;61.78;;;15.48;;
23888;SDS011;12125;40.102;18.326;2022-11-20T02:36:32;56.42;;;14.57;;
23888;SDS011;12125;40.102;18.326;2022-11-20T02:38:58;56.30;;;13.90;;
23888;SDS011;12125;40.102;18.326;2022-11-20T02:41:32;65.88;;;15.23;;
23888;SDS011;12125;40.102;18.326;2022-11-20T02:43:59;62.28;;;14.60;;
23888;SDS011;12125;40.102;18.326;2022-11-20T02:46:26;65.05;;;14.38;;
23888;SDS011;12125;40.102;18.326;2022-11-20T02:48:53;56.92;;;14.23;;
23888;SDS011;12125;40.102;18.326;2022-11-20T02:51:20;66.90;;;14.57;;
23888;SDS011;12125;40.102;18.326;2022-11-20T02:53:46;69.53;;;15.50;;
23888;SDS011;12125;40.102;18.326;2022-11-20T02:56:13;73.22;;;15.10;;
23888;SDS011;12125;40.102;18.326;2022-11-20T02:58:40;58.45;;;14.88;;
23888;SDS011;12125;40.102;18.326;2022-11-20T03:01:06;82.07;;;15.88;;
23888;SDS011;12125;40.102;18.326;2022-11-20T03:03:33;70.75;;;14.75;;
23888;SDS011;12125;40.102;18.326;2022-11-20T03:05:59;79.72;;;16.45;;
23888;SDS011;12125;40.102;18.326;2022-11-20T03:08:26;72.10;;;16.20;;
23888;SDS011;12125;40.102;18.326;2022-11-20T03:10:53;54.65;;;13.40;;
23888;SDS011;12125;40.102;18.326;2022-11-20T03:13:20;66.80;;;13.77;;
23888;SDS011;12125;40.102;18.326;2022-11-20T03:15:46;64.10;;;14.88;;
23888;SDS011;12125;40.102;18.326;2022-11-20T03:18:14;68.72;;;15.90;;
23888;SDS011;12125;40.102;18.326;2022-11-20T03:20:40;59.72;;;14.05;;
23888;SDS011;12125;40.102;18.326;2022-11-20T03:23:07;58.20;;;13.30;;
23888;SDS011;12125;40.102;18.326;2022-11-20T03:25:34;16.58;;;4.82;;
23888;SDS011;12125;40.102;18.326;2022-11-20T03:28:00;11.63;;;4.55;;
23888;SDS011;12125;40.102;18.326;2022-11-20T03:30:27;20.67;;;5.15;;
23888;SDS011;12125;40.102;18.326;2022-11-20T03:32:54;11.20;;;4.32;;
23888;SDS011;12125;40.102;18.326;2022-11-20T03:35:21;13.10;;;3.80;;
23888;SDS011;12125;40.102;18.326;2022-11-20T03:37:47;10.02;;;2.58;;
23888;SDS011;12125;40.102;18.326;2022-11-20T03:40:14;11.13;;;3.10;;
23888;SDS011;12125;40.102;18.326;2022-11-20T03:42:40;10.50;;;3.10;;
23888;SDS011;12125;40.102;18.326;2022-11-20T03:45:14;6.05;;;2.88;;
23888;SDS011;12125;40.102;18.326;2022-11-20T03:47:40;10.52;;;3.33;;
23888;SDS011;12125;40.102;18.326;2022-11-20T03:50:07;6.28;;;2.88;;
23888;SDS011;12125;40.102;18.326;2022-11-20T03:52:34;6.80;;;2.92;;
23888;SDS011;12125;40.102;18.326;2022-11-20T03:55:00;7.97;;;3.40;;
23888;SDS011;12125;40.102;18.326;2022-11-20T03:57:26;11.15;;;3.15;;
23888;SDS011;12125;40.102;18.326;2022-11-20T03:59:53;10.13;;;2.90;;
23888;SDS011;12125;40.102;18.326;2022-11-20T04:02:19;13.13;;;3.35;;
23888;SDS011;12125;40.102;18.326;2022-11-20T04:04:46;12.27;;;3.55;;
23888;SDS011;12125;40.102;18.326;2022-11-20T04:07:12;13.05;;;3.78;;
23888;SDS011;12125;40.102;18.326;2022-11-20T04:09:38;7.53;;;3.25;;
23888;SDS011;12125;40.102;18.326;2022-11-20T04:12:05;13.48;;;3.22;;
23888;SDS011;12125;40.102;18.326;2022-11-20T04:14:32;9.27;;;3.10;;
23888;SDS011;12125;40.102;18.326;2022-11-20T04:16:58;14.93;;;3.88;;
23888;SDS011;12125;40.102;18.326;2022-11-20T04:19:25;12.43;;;3.65;;
23888;SDS011;12125;40.102;18.326;2022-11-20T04:21:52;19.95;;;4.53;;
23888;SDS011;12125;40.102;18.326;2022-11-20T04:24:18;24.33;;;6.57;;
23888;SDS011;12125;40.102;18.326;2022-11-20T04:26:45;37.35;;;9.18;;
23888;SDS011;12125;40.102;18.326;2022-11-20T04:29:12;67.05;;;14.45;;
23888;SDS011;12125;40.102;18.326;2022-11-20T04:31:38;55.53;;;13.77;;
23888;SDS011;12125;40.102;18.326;2022-11-20T04:34:05;54.97;;;13.20;;
23888;SDS011;12125;40.102;18.326;2022-11-20T04:36:32;59.40;;;14.40;;
23888;SDS011;12125;40.102;18.326;2022-11-20T04:39:00;64.55;;;14.13;;
23888;SDS011;12125;40.102;18.326;2022-11-20T04:41:29;66.63;;;14.80;;
23888;SDS011;12125;40.102;18.326;2022-11-20T04:43:57;54.63;;;13.68;;
23888;SDS011;12125;40.102;18.326;2022-11-20T04:46:31;66.93;;;15.27;;
23888;SDS011;12125;40.102;18.326;2022-11-20T04:48:58;61.92;;;14.40;;
23888;SDS011;12125;40.102;18.326;2022-11-20T04:51:25;61.28;;;14.75;;
23888;SDS011;12125;40.102;18.326;2022-11-20T04:53:52;59.72;;;15.75;;
23888;SDS011;12125;40.102;18.326;2022-11-20T04:56:19;58.65;;;14.82;;
23888;SDS011;12125;40.102;18.326;2022-11-20T04:58:46;51.30;;;12.80;;
23888;SDS011;12125;40.102;18.326;2022-11-20T05:01:16;51.78;;;13.10;;
23888;SDS011;12125;40.102;18.326;2022-11-20T05:03:43;37.40;;;10.30;;
23888;SDS011;12125;40.102;18.326;2022-11-20T05:06:11;44.63;;;12.18;;
23888;SDS011;12125;40.102;18.326;2022-11-20T05:08:38;48.28;;;13.38;;
23888;SDS011;12125;40.102;18.326;2022-11-20T05:11:08;44.45;;;10.82;;
23888;SDS011;12125;40.102;18.326;2022-11-20T05:13:36;61.85;;;13.43;;
23888;SDS011;12125;40.102;18.326;2022-11-20T05:16:06;43.60;;;11.50;;
23888;SDS011;12125;40.102;18.326;2022-11-20T05:18:33;33.53;;;10.55;;
23888;SDS011;12125;40.102;18.326;2022-11-20T05:21:00;44.92;;;11.38;;
23888;SDS011;12125;40.102;18.326;2022-11-20T05:23:27;41.00;;;11.18;;
23888;SDS011;12125;40.102;18.326;2022-11-20T05:25:54;30.98;;;9.50;;
23888;SDS011;12125;40.102;18.326;2022-11-20T05:28:21;32.20;;;10.23;;
23888;SDS011;12125;40.102;18.326;2022-11-20T05:30:48;30.38;;;10.25;;
23888;SDS011;12125;40.102;18.326;2022-11-20T05:33:15;32.78;;;10.25;;
23888;SDS011;12125;40.102;18.326;2022-11-20T05:35:41;36.70;;;10.73;;
23888;SDS011;12125;40.102;18.326;2022-11-20T05:38:08;30.45;;;9.98;;
23888;SDS011;12125;40.102;18.326;2022-11-20T05:40:35;30.27;;;10.70;;
23888;SDS011;12125;40.102;18.326;2022-11-20T05:43:02;37.55;;;9.95;;
23888;SDS011;12125;40.102;18.326;2022-11-20T05:45:28;30.75;;;8.20;;
23888;SDS011;12125;40.102;18.326;2022-11-20T05:47:59;35.63;;;9.77;;
23888;SDS011;12125;40.102;18.326;2022-11-20T05:50:27;34.60;;;9.88;;
23888;SDS011;12125;40.102;18.326;2022-11-20T05:52:53;45.03;;;10.68;;
23888;SDS011;12125;40.102;18.326;2022-11-20T05:55:20;29.60;;;9.70;;
23888;SDS011;12125;40.102;18.326;2022-11-20T05:57:47;34.90;;;9.30;;
23888;SDS011;12125;40.102;18.326;2022-11-20T06:00:14;32.88;;;9.80;;
23888;SDS011;12125;40.102;18.326;2022-11-20T06:02:41;33.25;;;8.77;;
23888;SDS011;12125;40.102;18.326;2022-11-20T06:05:07;35.00;;;10.50;;
23888;SDS011;12125;40.102;18.326;2022-11-20T06:07:34;32.90;;;8.90;;
23888;SDS011;12125;40.102;18.326;2022-11-20T06:10:00;39.42;;;9.90;;
23888;SDS011;12125;40.102;18.326;2022-11-20T06:12:27;28.27;;;10.07;;
23888;SDS011;12125;40.102;18.326;2022-11-20T06:14:54;32.10;;;9.95;;
23888;SDS011;12125;40.102;18.326;2022-11-20T06:17:20;31.55;;;9.52;;
23888;SDS011;12125;40.102;18.326;2022-11-20T06:19:47;42.92;;;10.40;;
23888;SDS011;12125;40.102;18.326;2022-11-20T06:22:13;44.67;;;11.18;;
23888;SDS011;12125;40.102;18.326;2022-11-20T06:24:39;45.28;;;10.85;;
23888;SDS011;12125;40.102;18.326;2022-11-20T06:27:06;37.72;;;10.70;;
23888;SDS011;12125;40.102;18.326;2022-11-20T06:29:33;27.23;;;9.15;;
23888;SDS011;12125;40.102;18.326;2022-11-20T06:32:00;36.88;;;9.90;;
23888;SDS011;12125;40.102;18.326;2022-11-20T06:34:27;32.20;;;10.15;;
23888;SDS011;12125;40.102;18.326;2022-11-20T06:36:53;33.30;;;9.75;;
23888;SDS011;12125;40.102;18.326;2022-11-20T06:39:20;28.67;;;8.35;;
23888;SDS011;12125;40.102;18.326;2022-11-20T06:41:46;30.73;;;9.52;;
23888;SDS011;12125;40.102;18.326;2022-11-20T06:44:13;29.15;;;9.23;;
23888;SDS011;12125;40.102;18.326;2022-11-20T06:46:39;32.65;;;8.40;;
23888;SDS011;12125;40.102;18.326;2022-11-20T06:49:06;29.90;;;8.77;;
23888;SDS011;12125;40.102;18.326;2022-11-20T06:51:32;16.90;;;7.82;;
23888;SDS011;12125;40.102;18.326;2022-11-20T06:53:59;24.67;;;8.52;;
23888;SDS011;12125;40.102;18.326;2022-11-20T06:56:26;26.15;;;9.32;;
23888;SDS011;12125;40.102;18.326;2022-11-20T06:58:53;31.23;;;9.75;;
23888;SDS011;12125;40.102;18.326;2022-11-20T07:01:19;36.58;;;10.43;;
23888;SDS011;12125;40.102;18.326;2022-11-20T07:03:48;34.42;;;9.68;;
23888;SDS011;12125;40.102;18.326;2022-11-20T07:06:15;26.40;;;7.95;;
23888;SDS011;12125;40.102;18.326;2022-11-20T07:08:41;30.42;;;9.43;;
23888;SDS011;12125;40.102;18.326;2022-11-20T07:11:11;25.20;;;8.75;;
23888;SDS011;12125;40.102;18.326;2022-11-20T07:13:38;28.25;;;8.68;;
23888;SDS011;12125;40.102;18.326;2022-11-20T07:16:11;25.75;;;8.50;;
23888;SDS011;12125;40.102;18.326;2022-11-20T07:18:40;22.92;;;7.57;;
23888;SDS011;12125;40.102;18.326;2022-11-20T07:21:08;31.52;;;8.45;;
23888;SDS011;12125;40.102;18.326;2022-11-20T07:23:37;28.42;;;8.20;;
23888;SDS011;12125;40.102;18.326;2022-11-20T07:26:08;32.05;;;9.23;;
23888;SDS011;12125;40.102;18.326;2022-11-20T07:28:36;26.33;;;8.45;;
23888;SDS011;12125;40.102;18.326;2022-11-20T07:31:03;35.92;;;9.10;;
23888;SDS011;12125;40.102;18.326;2022-11-20T07:33:30;20.67;;;8.93;;
23888;SDS011;12125;40.102;18.326;2022-11-20T07:35:58;25.70;;;7.90;;
23888;SDS011;12125;40.102;18.326;2022-11-20T07:38:25;26.63;;;8.40;;
23888;SDS011;12125;40.102;18.326;2022-11-20T07:40:56;20.77;;;7.75;;
23888;SDS011;12125;40.102;18.326;2022-11-20T07:43:27;24.33;;;8.00;;
23888;SDS011;12125;40.102;18.326;2022-11-20T07:45:55;36.28;;;9.50;;
23888;SDS011;12125;40.102;18.326;2022-11-20T07:48:22;31.50;;;10.65;;
23888;SDS011;12125;40.102;18.326;2022-11-20T07:50:49;24.33;;;8.25;;
23888;SDS011;12125;40.102;18.326;2022-11-20T07:53:16;29.58;;;9.15;;
23888;SDS011;12125;40.102;18.326;2022-11-20T07:55:46;31.70;;;9.60;;
23888;SDS011;12125;40.102;18.326;2022-11-20T07:58:13;33.53;;;10.00;;
23888;SDS011;12125;40.102;18.326;2022-11-20T08:00:40;20.73;;;8.90;;
23888;SDS011;12125;40.102;18.326;2022-11-20T08:03:08;24.60;;;8.25;;
23888;SDS011;12125;40.102;18.326;2022-11-20T08:05:39;22.58;;;8.10;;
23888;SDS011;12125;40.102;18.326;2022-11-20T08:08:18;21.13;;;7.65;;
23888;SDS011;12125;40.102;18.326;2022-11-20T08:10:47;33.28;;;8.40;;
23888;SDS011;12125;40.102;18.326;2022-11-20T08:13:14;20.98;;;8.07;;
23888;SDS011;12125;40.102;18.326;2022-11-20T08:16:25;26.60;;;9.43;;
23888;SDS011;12125;40.102;18.326;2022-11-20T08:18:51;25.10;;;10.05;;
23888;SDS011;12125;40.102;18.326;2022-11-20T08:37:38;29.33;;;9.93;;
23888;SDS011;12125;40.102;18.326;2022-11-20T08:40:10;22.63;;;9.38;;
23888;SDS011;12125;40.102;18.326;2022-11-20T08:42:48;29.65;;;9.27;;
23888;SDS011;12125;40.102;18.326;2022-11-20T08:45:32;25.35;;;5.68;;
23888;SDS011;12125;40.102;18.326;2022-11-20T08:48:02;20.25;;;6.60;;
23888;SDS011;12125;40.102;18.326;2022-11-20T08:50:29;18.90;;;6.07;;
23888;SDS011;12125;40.102;18.326;2022-11-20T08:53:01;19.95;;;6.65;;
23888;SDS011;12125;40.102;18.326;2022-11-20T08:55:28;20.20;;;7.60;;
23888;SDS011;12125;40.102;18.326;2022-11-20T08:57:54;22.23;;;8.40;;
23888;SDS011;12125;40.102;18.326;2022-11-20T09:00:21;18.85;;;7.75;;
23888;SDS011;12125;40.102;18.326;2022-11-20T09:02:48;26.98;;;8.02;;
23888;SDS011;12125;40.102;18.326;2022-11-20T09:05:15;16.63;;;6.93;;
23888;SDS011;12125;40.102;18.326;2022-11-20T09:07:41;22.98;;;9.32;;
23888;SDS011;12125;40.102;18.326;2022-11-20T09:10:08;22.65;;;8.10;;
23888;SDS011;12125;40.102;18.326;2022-11-20T09:12:35;23.70;;;8.20;;
23888;SDS011;12125;40.102;18.326;2022-11-20T09:15:02;31.63;;;9.73;;
23888;SDS011;12125;40.102;18.326;2022-11-20T09:17:29;20.58;;;8.82;;
23888;SDS011;12125;40.102;18.326;2022-11-20T09:19:55;27.60;;;7.72;;
23888;SDS011;12125;40.102;18.326;2022-11-20T09:22:22;26.38;;;7.88;;
23888;SDS011;12125;40.102;18.326;2022-11-20T09:24:48;22.40;;;6.40;;
23888;SDS011;12125;40.102;18.326;2022-11-20T09:27:15;13.68;;;5.13;;
23888;SDS011;12125;40.102;18.326;2022-11-20T09:29:46;17.60;;;5.65;;
23888;SDS011;12125;40.102;18.326;2022-11-20T09:32:13;13.32;;;5.53;;
23888;SDS011;12125;40.102;18.326;2022-11-20T09:34:40;22.27;;;14.93;;
23888;SDS011;12125;40.102;18.326;2022-11-20T09:37:06;12.48;;;5.50;;
23888;SDS011;12125;40.102;18.326;2022-11-20T09:39:33;11.30;;;5.03;;
23888;SDS011;12125;40.102;18.326;2022-11-20T09:50:01;16.13;;;6.22;;
23888;SDS011;12125;40.102;18.326;2022-11-20T09:52:41;10.90;;;3.83;;
23888;SDS011;12125;40.102;18.326;2022-11-20T09:55:10;11.82;;;4.32;;
23888;SDS011;12125;40.102;18.326;2022-11-20T09:57:39;15.43;;;5.40;;
23888;SDS011;12125;40.102;18.326;2022-11-20T10:00:10;14.60;;;6.95;;
23888;SDS011;12125;40.102;18.326;2022-11-20T10:02:43;15.57;;;6.05;;
23888;SDS011;12125;40.102;18.326;2022-11-20T10:05:12;16.45;;;4.70;;
23888;SDS011;12125;40.102;18.326;2022-11-20T10:07:48;19.15;;;6.72;;
23888;SDS011;12125;40.102;18.326;2022-11-20T10:13:20;10.98;;;4.43;;
23888;SDS011;12125;40.102;18.326;2022-11-20T10:18:39;19.23;;;8.02;;
23888;SDS011;12125;40.102;18.326;2022-11-20T10:29:13;17.08;;;7.43;;
23888;SDS011;12125;40.102;18.326;2022-11-20T10:31:41;20.63;;;6.82;;
23888;SDS011;12125;40.102;18.326;2022-11-20T10:36:43;14.63;;;5.03;;
23888;SDS011;12125;40.102;18.326;2022-11-20T10:39:18;18.20;;;4.90;;
23888;SDS011;12125;40.102;18.326;2022-11-20T10:41:49;14.77;;;5.18;;
23888;SDS011;12125;40.102;18.326;2022-11-20T10:44:26;10.23;;;4.25;;
23888;SDS011;12125;40.102;18.326;2022-11-20T10:47:16;19.75;;;4.70;;
23888;SDS011;12125;40.102;18.326;2022-11-20T10:49:57;11.50;;;3.70;;
23888;SDS011;12125;40.102;18.326;2022-11-20T10:55:06;13.05;;;4.55;;
23888;SDS011;12125;40.102;18.326;2022-11-20T11:00:43;11.95;;;4.25;;
23888;SDS011;12125;40.102;18.326;2022-11-20T11:03:28;11.88;;;3.85;;
23888;SDS011;12125;40.102;18.326;2022-11-20T11:08:26;13.80;;;5.22;;
23888;SDS011;12125;40.102;18.326;2022-11-20T11:10:55;16.35;;;4.53;;
23888;SDS011;12125;40.102;18.326;2022-11-20T11:13:24;13.98;;;5.90;;
23888;SDS011;12125;40.102;18.326;2022-11-20T11:15:51;12.48;;;4.90;;
23888;SDS011;12125;40.102;18.326;2022-11-20T11:18:29;11.80;;;4.43;;
23888;SDS011;12125;40.102;18.326;2022-11-20T11:20:59;14.05;;;5.05;;
23888;SDS011;12125;40.102;18.326;2022-11-20T11:25:57;14.75;;;6.22;;
23888;SDS011;12125;40.102;18.326;2022-11-20T11:28:26;19.80;;;6.97;;
23888;SDS011;12125;40.102;18.326;2022-11-20T11:30:54;19.75;;;8.88;;
23888;SDS011;12125;40.102;18.326;2022-11-20T11:33:23;20.60;;;9.63;;
23888;SDS011;12125;40.102;18.326;2022-11-20T11:35:55;20.00;;;10.52;;
23888;SDS011;12125;40.102;18.326;2022-11-20T11:38:36;12.27;;;5.53;;
23888;SDS011;12125;40.102;18.326;2022-11-20T11:41:05;22.10;;;13.37;;
23888;SDS011;12125;40.102;18.326;2022-11-20T11:43:48;26.02;;;10.02;;
23888;SDS011;12125;40.102;18.326;2022-11-20T11:46:43;17.48;;;7.82;;
23888;SDS011;12125;40.102;18.326;2022-11-20T11:49:15;29.27;;;8.93;;
23888;SDS011;12125;40.102;18.326;2022-11-20T11:51:50;28.45;;;9.95;;
23888;SDS011;12125;40.102;18.326;2022-11-20T11:54:24;22.98;;;7.10;;
23888;SDS011;12125;40.102;18.326;2022-11-20T11:56:51;23.20;;;10.20;;
23888;SDS011;12125;40.102;18.326;2022-11-20T12:02:35;21.40;;;5.38;;
23888;SDS011;12125;40.102;18.326;2022-11-20T12:05:09;23.90;;;5.32;;
23888;SDS011;12125;40.102;18.326;2022-11-20T12:07:41;15.23;;;6.63;;
23888;SDS011;12125;40.102;18.326;2022-11-20T12:10:36;18.85;;;5.70;;
23888;SDS011;12125;40.102;18.326;2022-11-20T12:12:58;12.32;;;4.53;;
23888;SDS011;12125;40.102;18.326;2022-11-20T12:15:30;20.02;;;4.30;;
23888;SDS011;12125;40.102;18.326;2022-11-20T12:17:57;10.82;;;3.33;;
23888;SDS011;12125;40.102;18.326;2022-11-20T12:20:26;13.25;;;4.28;;
23888;SDS011;12125;40.102;18.326;2022-11-20T12:23:09;16.13;;;4.20;;
23888;SDS011;12125;40.102;18.326;2022-11-20T12:25:40;18.90;;;4.45;;
23888;SDS011;12125;40.102;18.326;2022-11-20T12:39:22;12.60;;;3.55;;
23888;SDS011;12125;40.102;18.326;2022-11-20T12:42:13;6.55;;;2.80;;
23888;SDS011;12125;40.102;18.326;2022-11-20T12:47:46;19.00;;;7.00;;
23888;SDS011;12125;40.102;18.326;2022-11-20T12:57:21;2.80;;;1.52;;
23888;SDS011;12125;40.102;18.326;2022-11-20T13:02:35;2.22;;;1.45;;
23888;SDS011;12125;40.102;18.326;2022-11-20T13:08:20;5.78;;;2.60;;
23888;SDS011;12125;40.102;18.326;2022-11-20T13:16:14;4.95;;;1.98;;
23888;SDS011;12125;40.102;18.326;2022-11-20T13:18:44;5.97;;;2.33;;
23888;SDS011;12125;40.102;18.326;2022-11-20T13:24:25;4.90;;;2.20;;
23888;SDS011;12125;40.102;18.326;2022-11-20T13:30:02;5.70;;;2.35;;
23888;SDS011;12125;40.102;18.326;2022-11-20T13:32:32;6.35;;;2.20;;
23888;SDS011;12125;40.102;18.326;2022-11-20T13:35:03;5.30;;;2.35;;
23888;SDS011;12125;40.102;18.326;2022-11-20T13:37:35;7.15;;;3.35;;
23888;SDS011;12125;40.102;18.326;2022-11-20T13:40:21;8.75;;;4.47;;
23888;SDS011;12125;40.102;18.326;2022-11-20T13:43:02;8.65;;;4.75;;
23888;SDS011;12125;40.102;18.326;2022-11-20T13:45:31;7.13;;;4.97;;
23888;SDS011;12125;40.102;18.326;2022-11-20T13:48:01;10.65;;;9.38;;
23888;SDS011;12125;40.102;18.326;2022-11-20T13:50:42;7.57;;;4.47;;
23888;SDS011;12125;40.102;18.326;2022-11-20T13:56:01;8.13;;;3.78;;
23888;SDS011;12125;40.102;18.326;2022-11-20T14:01:05;8.40;;;3.53;;
23888;SDS011;12125;40.102;18.326;2022-11-20T14:03:37;7.70;;;3.20;;
23888;SDS011;12125;40.102;18.326;2022-11-20T14:06:10;8.10;;;3.35;;
23888;SDS011;12125;40.102;18.326;2022-11-20T14:11:16;8.05;;;4.07;;
23888;SDS011;12125;40.102;18.326;2022-11-20T14:14:02;9.38;;;4.15;;
23888;SDS011;12125;40.102;18.326;2022-11-20T14:16:31;8.40;;;3.63;;
23888;SDS011;12125;40.102;18.326;2022-11-20T14:19:14;10.25;;;4.05;;
23888;SDS011;12125;40.102;18.326;2022-11-20T14:24:22;12.63;;;3.65;;
23888;SDS011;12125;40.102;18.326;2022-11-20T14:26:49;11.20;;;4.13;;
23888;SDS011;12125;40.102;18.326;2022-11-20T14:29:28;7.15;;;3.22;;
23888;SDS011;12125;40.102;18.326;2022-11-20T14:31:56;9.60;;;4.15;;
23888;SDS011;12125;40.102;18.326;2022-11-20T14:34:24;9.95;;;3.97;;
23888;SDS011;12125;40.102;18.326;2022-11-20T14:36:52;10.55;;;4.35;;
23888;SDS011;12125;40.102;18.326;2022-11-20T14:39:20;15.43;;;3.88;;
23888;SDS011;12125;40.102;18.326;2022-11-20T14:41:53;14.23;;;8.60;;
23888;SDS011;12125;40.102;18.326;2022-11-20T14:44:23;17.10;;;9.00;;
23888;SDS011;12125;40.102;18.326;2022-11-20T14:46:52;16.20;;;5.40;;
23888;SDS011;12125;40.102;18.326;2022-11-20T14:49:19;7.38;;;3.58;;
23888;SDS011;12125;40.102;18.326;2022-11-20T14:51:46;10.80;;;3.22;;
23888;SDS011;12125;40.102;18.326;2022-11-20T14:54:14;7.15;;;2.97;;
23888;SDS011;12125;40.102;18.326;2022-11-20T14:56:41;11.02;;;2.78;;
23888;SDS011;12125;40.102;18.326;2022-11-20T14:59:08;8.90;;;3.55;;
23888;SDS011;12125;40.102;18.326;2022-11-20T15:01:36;5.88;;;2.60;;
23888;SDS011;12125;40.102;18.326;2022-11-20T15:04:06;12.35;;;3.13;;
23888;SDS011;12125;40.102;18.326;2022-11-20T15:06:38;22.40;;;4.10;;
23888;SDS011;12125;40.102;18.326;2022-11-20T15:09:16;9.23;;;3.03;;
23888;SDS011;12125;40.102;18.326;2022-11-20T15:11:51;27.85;;;25.08;;
23888;SDS011;12125;40.102;18.326;2022-11-20T15:14:19;21.40;;;14.65;;
23888;SDS011;12125;40.102;18.326;2022-11-20T15:16:47;13.35;;;6.05;;
23888;SDS011;12125;40.102;18.326;2022-11-20T15:19:18;11.25;;;3.78;;
23888;SDS011;12125;40.102;18.326;2022-11-20T15:21:45;8.40;;;3.17;;
23888;SDS011;12125;40.102;18.326;2022-11-20T15:24:13;6.05;;;2.55;;
23888;SDS011;12125;40.102;18.326;2022-11-20T15:26:40;10.75;;;3.53;;
23888;SDS011;12125;40.102;18.326;2022-11-20T15:29:08;9.98;;;3.97;;
23888;SDS011;12125;40.102;18.326;2022-11-20T15:31:37;9.10;;;3.45;;
23888;SDS011;12125;40.102;18.326;2022-11-20T15:34:11;9.32;;;4.13;;
23888;SDS011;12125;40.102;18.326;2022-11-20T15:36:39;8.50;;;3.80;;
23888;SDS011;12125;40.102;18.326;2022-11-20T15:39:07;8.80;;;3.97;;
23888;SDS011;12125;40.102;18.326;2022-11-20T15:41:36;10.27;;;3.88;;
23888;SDS011;12125;40.102;18.326;2022-11-20T15:44:04;6.90;;;3.83;;
23888;SDS011;12125;40.102;18.326;2022-11-20T15:46:31;7.70;;;4.05;;
23888;SDS011;12125;40.102;18.326;2022-11-20T15:49:03;6.23;;;3.57;;
23888;SDS011;12125;40.102;18.326;2022-11-20T15:51:36;10.82;;;4.43;;
23888;SDS011;12125;40.102;18.326;2022-11-20T15:54:13;9.98;;;3.95;;
23888;SDS011;12125;40.102;18.326;2022-11-20T15:56:40;8.15;;;3.65;;
23888;SDS011;12125;40.102;18.326;2022-11-20T15:59:06;12.73;;;4.60;;
23888;SDS011;12125;40.102;18.326;2022-11-20T16:01:33;10.85;;;4.57;;
23888;SDS011;12125;40.102;18.326;2022-11-20T16:04:00;12.25;;;6.22;;
23888;SDS011;12125;40.102;18.326;2022-11-20T16:06:27;13.10;;;5.13;;
23888;SDS011;12125;40.102;18.326;2022-11-20T16:08:53;15.77;;;7.20;;
23888;SDS011;12125;40.102;18.326;2022-11-20T16:11:19;14.05;;;5.97;;
23888;SDS011;12125;40.102;18.326;2022-11-20T16:13:46;15.15;;;6.53;;
23888;SDS011;12125;40.102;18.326;2022-11-20T16:16:35;11.90;;;6.00;;
23888;SDS011;12125;40.102;18.326;2022-11-20T16:19:02;14.05;;;5.53;;
23888;SDS011;12125;40.102;18.326;2022-11-20T16:21:29;11.63;;;5.65;;
23888;SDS011;12125;40.102;18.326;2022-11-20T16:24:02;11.63;;;5.90;;
23888;SDS011;12125;40.102;18.326;2022-11-20T16:26:29;14.07;;;5.40;;